Time;durP1;ratioP1;P1;durP2;ratioP2;P2;SDS_P1;SDS_P2;PMS_P1;PMS_P2;Temp;Humidity;BMP_temperature;BMP_pressure;BME280_temperature;BME280_humidity;BME280_pressure;Samples;Min_cycle;Max_cycle;Signal;HPM_P1;HPM_P2
2022/05/21 00:00:47;;;;;;;14.55;8.63;;;14.20;99.90;;;;;;4939237;29;20119;-88
2022/05/21 00:03:13;;;;;;;13.20;8.40;;;14.10;99.90;;;;;;4938975;29;20019;-88
2022/05/21 00:05:40;;;;;;;12.10;8.45;;;14.10;99.90;;;;;;4954993;29;20031;-88
2022/05/21 00:08:10;;;;;;;13.25;8.95;;;14.10;99.90;;;;;;4938834;29;20043;-89
2022/05/21 00:10:38;;;;;;;14.35;8.93;;;14.00;99.90;;;;;;4956130;29;20039;-88
2022/05/21 00:13:05;;;;;;;15.70;9.05;;;14.10;99.90;;;;;;4938905;29;20031;-88
2022/05/21 00:15:33;;;;;;;16.65;9.25;;;14.00;99.90;;;;;;4939236;29;20047;-88
2022/05/21 00:17:58;;;;;;;13.18;8.90;;;14.00;99.90;;;;;;4938900;29;20118;-89
2022/05/21 00:23:13;;;;;;;12.98;9.63;;;14.00;99.90;;;;;;4955882;29;20127;-87
2022/05/21 00:25:40;;;;;;;15.25;9.93;;;13.90;99.90;;;;;;4938552;29;20490;-88
2022/05/21 00:28:06;;;;;;;14.30;9.30;;;13.90;99.90;;;;;;4955386;29;20032;-88
2022/05/21 00:30:32;;;;;;;14.10;9.98;;;13.90;99.90;;;;;;4955783;29;20027;-88
2022/05/21 00:32:58;;;;;;;13.32;10.43;;;13.90;99.90;;;;;;4938836;29;20038;-88
2022/05/21 00:35:24;;;;;;;14.60;10.85;;;13.90;99.90;;;;;;4954390;29;20016;-87
2022/05/21 00:37:50;;;;;;;17.25;11.57;;;13.90;99.90;;;;;;4938504;29;20023;-88
2022/05/21 00:40:16;;;;;;;14.93;11.15;;;13.90;99.90;;;;;;4954220;29;20046;-88
2022/05/21 00:42:43;;;;;;;15.85;11.60;;;13.90;99.90;;;;;;4954572;29;20482;-87
2022/05/21 00:45:10;;;;;;;14.05;12.00;;;13.90;99.90;;;;;;4954201;29;20121;-88
2022/05/21 00:47:39;;;;;;;17.77;11.85;;;13.90;99.90;;;;;;4942974;28;20387;-88
2022/05/21 00:50:08;;;;;;;14.48;11.23;;;13.90;99.90;;;;;;4941466;28;20169;-87
2022/05/21 00:52:35;;;;;;;16.17;11.98;;;13.90;99.90;;;;;;4959051;28;20051;-87
2022/05/21 00:55:26;;;;;;;17.30;12.20;;;13.90;99.90;;;;;;4947692;28;20029;-87
2022/05/21 01:00:48;;;;;;;16.60;11.82;;;13.80;99.90;;;;;;4981302;28;20049;-88
2022/05/21 01:03:15;;;;;;;17.38;11.95;;;13.80;99.90;;;;;;4963734;28;20031;-87
2022/05/21 01:05:45;;;;;;;16.90;11.68;;;13.80;99.90;;;;;;4963692;28;20023;-88
2022/05/21 01:08:11;;;;;;;16.10;11.48;;;13.80;99.90;;;;;;4963275;28;20047;-88
2022/05/21 01:10:42;;;;;;;16.95;12.23;;;13.80;99.90;;;;;;4980913;28;20097;-87
2022/05/21 01:13:11;;;;;;;16.17;11.60;;;13.80;99.90;;;;;;4980877;28;20027;-87
2022/05/21 01:15:41;;;;;;;15.38;11.27;;;13.80;99.90;;;;;;4963592;28;20041;-87
2022/05/21 01:18:08;;;;;;;14.30;11.77;;;13.80;99.90;;;;;;4963656;28;20026;-87
2022/05/21 01:20:47;;;;;;;17.00;11.13;;;13.80;99.90;;;;;;4963369;28;20467;-88
2022/05/21 01:23:13;;;;;;;18.98;11.98;;;13.80;99.90;;;;;;4963427;28;20023;-87
2022/05/21 01:25:40;;;;;;;16.73;11.57;;;13.80;99.90;;;;;;4963257;28;20436;-87
2022/05/21 01:28:12;;;;;;;14.35;10.85;;;13.80;99.90;;;;;;4963699;28;20090;-89
2022/05/21 01:30:44;;;;;;;17.27;11.10;;;13.80;99.90;;;;;;4963683;28;20438;-88
2022/05/21 01:33:12;;;;;;;16.60;11.30;;;13.80;99.90;;;;;;4980530;28;20027;-88
2022/05/21 01:35:40;;;;;;;16.10;11.10;;;13.80;99.90;;;;;;4963312;28;20045;-87
2022/05/21 01:38:07;;;;;;;15.68;11.32;;;13.80;99.90;;;;;;4980788;28;20027;-87
2022/05/21 01:40:33;;;;;;;14.25;10.77;;;13.80;99.90;;;;;;4980782;28;20073;-87
2022/05/21 01:45:43;;;;;;;15.45;11.27;;;13.90;99.90;;;;;;4966398;28;20097;-87
2022/05/21 01:48:09;;;;;;;14.60;10.45;;;13.90;99.90;;;;;;4963532;28;20421;-87
2022/05/21 01:50:37;;;;;;;17.77;11.75;;;13.80;99.90;;;;;;4947486;28;20035;-87
2022/05/21 01:53:03;;;;;;;16.02;10.38;;;13.90;99.90;;;;;;4947589;28;20118;-87
2022/05/21 01:55:29;;;;;;;15.38;10.93;;;13.90;99.90;;;;;;4963053;28;20069;-88
2022/05/21 01:57:54;;;;;;;17.38;10.77;;;13.90;99.90;;;;;;4980669;28;20110;-87
2022/05/21 02:00:20;;;;;;;15.80;11.52;;;13.90;99.90;;;;;;4946952;28;20384;-87
2022/05/21 02:02:46;;;;;;;17.40;11.65;;;13.90;99.90;;;;;;4980425;28;20023;-86
2022/05/21 02:05:12;;;;;;;15.18;10.80;;;13.90;99.90;;;;;;4944070;28;20126;-87
2022/05/21 02:07:37;;;;;;;17.77;11.45;;;13.90;99.90;;;;;;4959767;28;20080;-87
2022/05/21 02:10:05;;;;;;;15.75;11.40;;;13.90;99.90;;;;;;4944399;28;20390;-87
2022/05/21 02:12:31;;;;;;;15.05;10.68;;;13.90;99.90;;;;;;4959884;28;20077;-87
2022/05/21 02:14:56;;;;;;;21.42;11.32;;;13.90;99.90;;;;;;4977058;28;20110;-88
2022/05/21 02:17:22;;;;;;;20.65;11.15;;;13.90;99.90;;;;;;4959818;28;20118;-87
2022/05/21 02:19:48;;;;;;;23.25;12.45;;;14.00;99.90;;;;;;4944235;28;20030;-87
2022/05/21 02:22:15;;;;;;;18.40;12.30;;;13.90;99.90;;;;;;4959946;28;20537;-88
2022/05/21 02:24:41;;;;;;;16.58;11.55;;;13.90;99.90;;;;;;4944060;28;20489;-87
2022/05/21 02:27:11;;;;;;;18.50;11.13;;;13.90;99.90;;;;;;4957865;28;20023;-87
2022/05/21 02:29:38;;;;;;;;;;;14.00;99.90;;;;;;4956750;28;20034;-87
2022/05/21 02:32:04;;;;;;;18.00;11.63;;;14.00;99.90;;;;;;4940353;29;19906;-88
2022/05/21 02:34:30;;;;;;;19.95;11.75;;;14.00;99.90;;;;;;4956182;29;20023;-88
2022/05/21 02:39:41;;;;;;;18.10;11.25;;;14.00;99.90;;;;;;4957700;29;20042;-87
2022/05/21 02:42:43;;;;;;;17.80;10.80;;;14.00;99.90;;;;;;4940554;29;20039;-88
2022/05/21 02:44:53;;;;;;;20.25;11.65;;;14.00;99.90;;;;;;4956969;29;20039;-88
2022/05/21 02:47:19;;;;;;;18.75;11.32;;;13.90;99.90;;;;;;4940335;29;20058;-88
2022/05/21 02:49:44;;;;;;;16.23;11.20;;;14.00;99.90;;;;;;4940031;29;20455;-88
2022/05/21 02:52:10;;;;;;;19.35;11.13;;;14.00;99.90;;;;;;4940515;29;20023;-88
2022/05/21 02:54:35;;;;;;;18.50;11.48;;;14.00;99.90;;;;;;4956064;29;20487;-87
2022/05/21 02:57:01;;;;;;;18.10;11.13;;;14.00;99.90;;;;;;4940427;29;20455;-88
2022/05/21 02:59:29;;;;;;;14.82;11.02;;;14.00;99.90;;;;;;4924035;29;20365;-89
2022/05/21 03:01:55;;;;;;;20.38;11.93;;;14.00;99.90;;;;;;4956056;29;20023;-88
2022/05/21 03:04:21;;;;;;;19.10;11.23;;;14.10;99.90;;;;;;4956881;29;20494;-87
2022/05/21 03:06:47;;;;;;;18.45;11.35;;;14.00;99.90;;;;;;4939899;29;20027;-87
2022/05/21 03:11:57;;;;;;;17.50;11.35;;;14.10;99.90;;;;;;4942532;29;20535;-87
2022/05/21 03:14:23;;;;;;;17.35;11.18;;;14.10;99.90;;;;;;4923764;29;20027;-88
2022/05/21 03:16:49;;;;;;;19.85;11.65;;;14.10;99.90;;;;;;4954757;28;20031;-88
2022/05/21 03:19:14;;;;;;;18.00;11.50;;;14.10;99.90;;;;;;4924111;29;20126;-88
2022/05/21 03:21:40;;;;;;;19.73;11.55;;;14.10;99.90;;;;;;4939420;29;20047;-88
2022/05/21 03:24:06;;;;;;;20.17;11.55;;;14.10;99.90;;;;;;4955744;29;20039;-86
2022/05/21 03:26:31;;;;;;;23.13;11.75;;;14.10;99.90;;;;;;4939574;29;20027;-88
2022/05/21 03:28:57;;;;;;;18.80;10.70;;;14.10;99.90;;;;;;4923949;29;20031;-88
2022/05/21 03:31:24;;;;;;;20.73;11.15;;;14.10;99.90;;;;;;4955463;29;20034;-89
2022/05/21 03:33:50;;;;;;;15.05;10.68;;;14.10;99.90;;;;;;4956425;29;20027;-87
2022/05/21 03:36:15;;;;;;;19.88;10.95;;;14.10;99.90;;;;;;4956420;29;20094;-89
2022/05/21 03:38:41;;;;;;;21.65;11.48;;;14.10;99.90;;;;;;4956313;29;20020;-88
2022/05/21 03:41:07;;;;;;;19.38;10.48;;;14.10;99.90;;;;;;4956385;29;20035;-87
2022/05/21 03:43:32;;;;;;;20.90;10.85;;;14.10;99.90;;;;;;4938902;29;20028;-88
2022/05/21 03:45:59;;;;;;;19.80;10.93;;;14.10;99.90;;;;;;4939122;29;20032;-89
2022/05/21 03:48:25;;;;;;;19.25;12.13;;;14.10;99.90;;;;;;4955540;29;20058;-89
2022/05/21 03:50:51;;;;;;;22.00;10.50;;;14.10;99.90;;;;;;4955639;29;20047;-89
2022/05/21 03:53:16;;;;;;;21.23;11.05;;;14.10;99.90;;;;;;4955820;29;20514;-90
2022/05/21 03:55:44;;;;;;;17.30;10.48;;;14.10;99.90;;;;;;4939677;29;20055;-89
2022/05/21 03:58:10;;;;;;;18.73;10.80;;;14.10;99.90;;;;;;4955094;29;20034;-88
2022/05/21 04:00:38;;;;;;;18.63;11.07;;;14.10;99.90;;;;;;4923052;29;20046;-88
2022/05/21 04:03:04;;;;;;;20.80;11.05;;;14.10;99.90;;;;;;4954960;29;20030;-88
2022/05/21 04:05:30;;;;;;;16.77;10.45;;;14.10;99.90;;;;;;4922744;29;20031;-88
2022/05/21 04:07:56;;;;;;;17.83;10.43;;;14.10;99.90;;;;;;4954733;28;20151;-89
2022/05/21 04:10:22;;;;;;;22.50;10.65;;;14.20;99.90;;;;;;4947373;29;20059;-88
2022/05/21 04:12:47;;;;;;;20.15;10.82;;;14.20;99.90;;;;;;4954910;29;20037;-88
2022/05/21 04:15:14;;;;;;;18.20;10.43;;;14.20;99.90;;;;;;4956264;29;20302;-88
2022/05/21 04:17:40;;;;;;;17.15;10.65;;;14.20;99.90;;;;;;4955542;29;20491;-88
2022/05/21 04:20:08;;;;;;;20.45;11.18;;;14.20;99.90;;;;;;4955572;29;20031;-87
2022/05/21 04:22:34;;;;;;;21.98;11.77;;;14.20;99.90;;;;;;4954345;29;20086;-88
2022/05/21 04:25:00;;;;;;;22.13;11.13;;;14.20;99.90;;;;;;4938507;29;20035;-87
2022/05/21 04:27:27;;;;;;;20.58;11.32;;;14.20;99.90;;;;;;4957253;28;20117;-91
2022/05/21 04:29:53;;;;;;;23.00;11.35;;;14.20;99.90;;;;;;4957784;28;20058;-88
2022/05/21 04:32:19;;;;;;;27.27;12.43;;;14.20;99.90;;;;;;4957625;28;20066;-88
2022/05/21 04:34:46;;;;;;;22.17;12.73;;;14.20;99.90;;;;;;4974679;28;20120;-88
2022/05/21 04:37:11;;;;;;;19.38;12.20;;;14.20;99.90;;;;;;4957769;28;20046;-89
2022/05/21 04:39:37;;;;;;;21.50;12.02;;;14.20;99.90;;;;;;4941445;28;20042;-89
2022/05/21 04:42:03;;;;;;;24.45;11.35;;;14.20;99.90;;;;;;4957902;28;20121;-88
2022/05/21 04:44:34;;;;;;;17.48;10.95;;;14.30;99.90;;;;;;4974568;28;20042;-88
2022/05/21 04:47:00;;;;;;;19.77;11.05;;;14.20;99.90;;;;;;4957551;28;20042;-88
2022/05/21 04:49:26;;;;;;;20.40;11.20;;;14.30;99.90;;;;;;4957433;28;20382;-90
2022/05/21 04:51:52;;;;;;;22.08;11.23;;;14.30;99.90;;;;;;4957321;28;20070;-88
2022/05/21 04:54:18;;;;;;;18.50;10.60;;;14.30;99.90;;;;;;4941559;28;20113;-88
2022/05/21 04:56:43;;;;;;;20.95;9.98;;;14.30;99.90;;;;;;4957324;28;20071;-89
2022/05/21 04:59:10;;;;;;;18.95;10.52;;;14.30;99.90;;;;;;4957466;28;20479;-88
2022/05/21 05:01:38;;;;;;;19.60;10.05;;;14.30;99.90;;;;;;4957120;28;20034;-88
2022/05/21 05:04:04;;;;;;;18.55;9.73;;;14.30;99.90;;;;;;4974596;28;20065;-87
2022/05/21 05:06:31;;;;;;;18.30;9.70;;;14.30;99.90;;;;;;4956918;28;20502;-89
2022/05/21 05:08:56;;;;;;;25.05;9.85;;;14.30;99.90;;;;;;4957101;28;20065;-88
2022/05/21 05:11:23;;;;;;;21.30;8.98;;;14.30;99.90;;;;;;4957377;28;20031;-88
2022/05/21 05:13:49;;;;;;;20.80;9.77;;;14.30;99.90;;;;;;4974036;28;20070;-88
2022/05/21 05:16:15;;;;;;;24.35;9.57;;;14.30;99.90;;;;;;4957076;28;20031;-88
2022/05/21 05:18:41;;;;;;;20.45;9.30;;;14.30;99.90;;;;;;4956818;28;20094;-88
2022/05/21 05:21:06;;;;;;;22.25;8.80;;;14.40;99.90;;;;;;4957143;28;20035;-88
2022/05/21 05:23:32;;;;;;;22.42;8.18;;;14.40;99.90;;;;;;4957132;28;20467;-87
2022/05/21 05:26:00;;;;;;;28.23;9.65;;;14.40;99.90;;;;;;4957367;28;20114;-89
2022/05/21 05:28:27;;;;;;;24.60;8.93;;;14.40;99.90;;;;;;4957244;28;20033;-89
2022/05/21 05:30:53;;;;;;;21.85;8.50;;;14.40;99.90;;;;;;4957067;28;20039;-88
2022/05/21 05:33:19;;;;;;;23.42;7.97;;;14.40;99.90;;;;;;4925487;28;20066;-88
2022/05/21 05:35:52;;;;;;;21.73;7.85;;;14.40;99.90;;;;;;4974571;28;20023;-88
2022/05/21 05:38:19;;;;;;;21.15;8.25;;;14.40;99.90;;;;;;4956677;28;20034;-88
2022/05/21 05:40:47;;;;;;;17.63;7.38;;;14.40;99.90;;;;;;4959156;28;20432;-88
2022/05/21 05:43:15;;;;;;;21.75;7.45;;;14.40;99.90;;;;;;4960475;28;20023;-85
2022/05/21 05:45:40;;;;;;;21.20;8.27;;;14.50;99.90;;;;;;4977699;28;20467;-85
2022/05/21 05:48:06;;;;;;;17.00;7.38;;;14.40;99.90;;;;;;4960604;28;20034;-86
2022/05/21 05:50:32;;;;;;;18.90;7.38;;;14.50;99.90;;;;;;4960559;28;20026;-86
2022/05/21 05:53:06;;;;;;;17.13;7.15;;;14.50;99.90;;;;;;4944572;28;20340;-86
2022/05/21 05:55:33;;;;;;;14.90;6.50;;;14.60;99.90;;;;;;4960722;28;20042;-86
2022/05/21 05:57:59;;;;;;;18.55;6.60;;;14.60;99.90;;;;;;4977606;28;20031;-87
2022/05/21 06:00:26;;;;;;;20.45;7.03;;;14.60;99.90;;;;;;4953964;29;20042;-86
2022/05/21 06:02:58;;;;;;;19.60;6.40;;;14.60;99.90;;;;;;4956806;29;20047;-87
2022/05/21 06:05:26;;;;;;;15.63;5.30;;;14.60;99.90;;;;;;4941060;29;20031;-86
2022/05/21 06:08:00;;;;;;;23.65;6.10;;;14.70;99.90;;;;;;4940378;28;20461;-86
2022/05/21 06:10:29;;;;;;;20.25;6.05;;;14.70;99.90;;;;;;4957992;29;20037;-85
2022/05/21 06:12:56;;;;;;;20.63;6.30;;;14.70;99.90;;;;;;4956577;29;20042;-86
2022/05/21 06:15:22;;;;;;;18.35;6.05;;;14.80;99.90;;;;;;4956526;29;20027;-87
2022/05/21 06:17:49;;;;;;;23.95;6.43;;;14.80;99.90;;;;;;4956633;29;20020;-87
2022/05/21 06:20:17;;;;;;;18.50;6.07;;;14.90;99.90;;;;;;4940817;29;20049;-87
2022/05/21 06:22:44;;;;;;;18.58;5.65;;;14.90;99.90;;;;;;4957979;29;20020;-87
2022/05/21 06:25:11;;;;;;;21.58;6.05;;;14.90;99.90;;;;;;4940809;29;20146;-87
2022/05/21 06:27:37;;;;;;;16.60;5.30;;;15.00;99.90;;;;;;4940539;29;20140;-87
2022/05/21 06:30:04;;;;;;;17.85;5.63;;;15.00;99.90;;;;;;4955978;29;20036;-87
2022/05/21 06:32:32;;;;;;;17.23;3.90;;;15.00;99.90;;;;;;4957723;29;20024;-87
2022/05/21 06:34:58;;;;;;;16.02;4.47;;;15.00;99.90;;;;;;4940607;29;20035;-87
2022/05/21 06:37:23;;;;;;;16.88;4.57;;;15.10;99.90;;;;;;4940622;29;20395;-89
2022/05/21 06:39:49;;;;;;;15.38;3.72;;;15.10;99.90;;;;;;4940409;29;20171;-88
2022/05/21 06:42:15;;;;;;;15.25;3.83;;;15.10;99.90;;;;;;4940639;29;20042;-88
2022/05/21 06:44:42;;;;;;;19.30;4.40;;;15.10;99.90;;;;;;4956128;29;20106;-93
2022/05/21 06:47:08;;;;;;;15.75;3.47;;;15.10;99.90;;;;;;4956424;29;20383;-88
2022/05/21 06:49:34;;;;;;;13.00;3.80;;;15.20;99.90;;;;;;4940397;29;20042;-88
2022/05/21 06:52:00;;;;;;;19.65;3.88;;;15.20;99.90;;;;;;4939884;29;20031;-87
2022/05/21 06:54:26;;;;;;;19.95;4.65;;;15.30;99.90;;;;;;4956022;29;20031;-88
2022/05/21 06:56:53;;;;;;;15.02;3.83;;;15.30;99.90;;;;;;4955418;28;20471;-87
2022/05/21 06:59:19;;;;;;;16.27;3.53;;;15.30;99.90;;;;;;4939877;29;20027;-87
2022/05/21 07:01:45;;;;;;;13.48;3.90;;;15.40;99.90;;;;;;4939785;29;20066;-87
2022/05/21 07:04:13;;;;;;;17.60;3.90;;;15.40;99.90;;;;;;4945263;28;20055;-87
2022/05/21 07:09:23;;;;;;;12.10;3.00;;;15.40;99.90;;;;;;4953112;28;20158;-86
2022/05/21 07:11:51;;;;;;;15.30;2.75;;;15.40;99.90;;;;;;4958088;28;20030;-87
2022/05/21 07:14:17;;;;;;;12.60;3.00;;;15.50;99.90;;;;;;4947723;28;20479;-87
2022/05/21 07:16:43;;;;;;;13.65;3.55;;;15.50;99.90;;;;;;4936060;28;20376;-87
2022/05/21 07:19:09;;;;;;;11.95;3.10;;;15.60;99.90;;;;;;4978042;28;20089;-87
2022/05/21 07:21:35;;;;;;;15.32;3.20;;;15.60;99.90;;;;;;4959542;28;20121;-86
2022/05/21 07:24:01;;;;;;;13.80;3.53;;;15.60;99.90;;;;;;4984023;28;20026;-86
2022/05/21 07:26:28;;;;;;;14.93;3.45;;;15.70;99.90;;;;;;4967757;28;20852;-87
2022/05/21 07:28:54;;;;;;;11.05;2.72;;;15.70;99.90;;;;;;4958755;28;20109;-86
2022/05/21 07:31:19;;;;;;;12.07;3.47;;;15.80;99.90;;;;;;4973017;28;20102;-88
2022/05/21 07:33:46;;;;;;;14.27;3.17;;;15.80;99.90;;;;;;4949927;28;20166;-89
2022/05/21 07:36:12;;;;;;;15.25;2.67;;;15.80;99.90;;;;;;4964766;28;20031;-88
2022/05/21 07:38:37;;;;;;;13.07;3.00;;;15.90;99.90;;;;;;4944129;28;20382;-88
2022/05/21 07:41:03;;;;;;;12.57;2.97;;;15.90;99.90;;;;;;4929896;29;20047;-88
2022/05/21 07:43:30;;;;;;;15.48;3.42;;;15.90;99.90;;;;;;4923515;29;20038;-88
2022/05/21 07:46:00;;;;;;;16.17;3.33;;;16.00;99.90;;;;;;4939257;29;20050;-88
2022/05/21 07:48:27;;;;;;;12.30;3.05;;;16.00;99.90;;;;;;4939526;29;20097;-88
2022/05/21 07:50:59;;;;;;;12.98;3.10;;;16.10;99.90;;;;;;4954998;29;20488;-88
2022/05/21 07:53:28;;;;;;;14.90;3.70;;;16.10;99.90;;;;;;4955076;29;20178;-88
2022/05/21 07:55:55;;;;;;;16.33;3.63;;;16.20;99.90;;;;;;4954969;29;20113;-88
2022/05/21 07:58:22;;;;;;;10.02;3.35;;;16.20;99.90;;;;;;4939109;29;20036;-88
2022/05/21 08:00:49;;;;;;;14.30;3.90;;;16.20;99.90;;;;;;4939189;29;20102;-88
2022/05/21 08:03:24;;;;;;;13.95;3.35;;;16.30;99.90;;;;;;4953864;28;20059;-88
2022/05/21 08:05:50;;;;;;;11.90;3.10;;;16.40;99.90;;;;;;4955410;29;20082;-89
2022/05/21 08:08:16;;;;;;;12.05;3.53;;;16.40;99.90;;;;;;4938330;29;20059;-88
2022/05/21 08:10:44;;;;;;;12.88;3.22;;;16.50;99.90;;;;;;4940040;28;20050;-88
2022/05/21 08:13:11;;;;;;;13.18;3.50;;;16.50;99.90;;;;;;4956231;29;20035;-88
2022/05/21 08:15:38;;;;;;;13.15;3.13;;;16.50;99.90;;;;;;4954659;28;20113;-89
2022/05/21 08:18:04;;;;;;;13.88;3.22;;;16.60;99.90;;;;;;4954575;29;20082;-89
2022/05/21 08:20:32;;;;;;;11.43;3.58;;;16.70;99.90;;;;;;4956864;28;20043;-88
2022/05/21 08:28:46;;;;;;;;;;;;;;;;;;;;;
2022/05/21 08:34:28;;;;;;;10.20;3.05;;;16.90;99.90;;;;;;4964355;28;20533;-90
2022/05/21 08:37:01;;;;;;;14.70;3.38;;;17.00;99.90;;;;;;4969653;28;20018;-92
2022/05/21 08:39:47;;;;;;;14.30;3.25;;;17.00;99.90;;;;;;4945819;28;20066;-90
2022/05/21 08:46:19;;;;;;;;;;;;;;;;;;;;;
2022/05/21 08:52:43;;;;;;;9.73;2.75;;;17.20;99.90;;;;;;4890434;29;20109;-90
2022/05/21 08:55:18;;;;;;;11.70;2.92;;;17.30;99.90;;;;;;4916506;29;20488;-90
2022/05/21 09:01:55;;;;;;;;;;;;;;;;;;;;;
2022/05/21 09:04:23;;;;;;;11.00;2.63;;;17.50;99.90;;;;;;4938118;29;20062;-88
2022/05/21 09:06:58;;;;;;;12.57;2.90;;;17.50;99.90;;;;;;4954277;29;20118;-88
2022/05/21 09:09:34;;;;;;;15.75;3.08;;;17.60;99.90;;;;;;4955514;28;20054;-88
2022/05/21 09:12:20;;;;;;;9.25;2.80;;;17.60;99.90;;;;;;4938249;29;20074;-90
2022/05/21 09:14:58;;;;;;;10.15;2.70;;;17.60;99.90;;;;;;4957792;28;20361;-92
2022/05/21 09:17:29;;;;;;;10.40;2.72;;;17.60;99.90;;;;;;4959037;29;20028;-91
2022/05/21 09:20:20;;;;;;;13.98;3.78;;;17.70;99.90;;;;;;4943414;29;20031;-91
2022/05/21 09:23:01;;;;;;;10.02;2.50;;;17.70;99.90;;;;;;4955531;29;20408;-94
2022/05/21 09:25:29;;;;;;;9.75;2.40;;;17.80;99.90;;;;;;4927515;29;20035;-93
2022/05/21 09:28:10;;;;;;;9.82;2.35;;;17.80;99.90;;;;;;4966608;28;20023;-92
2022/05/21 09:30:40;;;;;;;9.55;3.55;;;17.90;99.90;;;;;;4971089;28;20086;-90
2022/05/21 09:33:35;;;;;;;10.75;3.33;;;17.90;99.90;;;;;;4948068;28;20024;-91
2022/05/21 09:36:08;;;;;;;15.00;3.20;;;17.90;99.70;;;;;;4970103;28;20101;-90
2022/05/21 09:38:48;;;;;;;13.90;3.35;;;17.80;99.90;;;;;;4955845;28;20074;-91
2022/05/21 09:41:30;;;;;;;11.25;3.17;;;17.80;99.90;;;;;;4978359;28;20030;-89
2022/05/21 09:47:21;;;;;;;14.82;3.20;;;17.90;99.90;;;;;;4969903;28;20042;-91
2022/05/21 09:50:10;;;;;;;10.90;2.70;;;17.90;99.90;;;;;;4966451;28;20030;-92
2022/05/21 09:52:38;;;;;;;9.82;2.90;;;17.90;99.90;;;;;;4968048;28;20027;-88
2022/05/21 09:55:20;;;;;;;10.35;2.70;;;17.90;99.90;;;;;;4941445;29;20028;-88
2022/05/21 09:57:49;;;;;;;14.20;3.47;;;18.00;99.90;;;;;;4941506;29;20019;-91
2022/05/21 10:00:30;;;;;;;19.40;3.95;;;18.00;99.90;;;;;;4941224;29;20027;-91
2022/05/21 10:03:03;;;;;;;;;;;18.10;99.90;;;;;;4942378;29;20030;-93
2022/05/21 10:05:47;;;;;;;9.52;3.10;;;18.10;99.90;;;;;;4941773;29;19961;-90
2022/05/21 10:11:40;;;;;;;10.95;3.53;;;18.10;99.70;;;;;;4958453;29;20056;-90
2022/05/21 10:14:23;;;;;;;11.73;3.50;;;18.10;99.80;;;;;;4933495;29;20062;-91
2022/05/21 10:17:06;;;;;;;11.20;3.55;;;18.20;99.80;;;;;;4942031;29;20063;-90
2022/05/21 10:20:12;;;;;;;9.80;3.30;;;18.20;99.90;;;;;;4941512;29;20074;-90
2022/05/21 10:22:59;;;;;;;8.45;2.88;;;18.30;99.90;;;;;;4915047;29;20118;-90
2022/05/21 10:25:42;;;;;;;9.32;2.70;;;18.30;99.90;;;;;;4956788;28;20065;-88
2022/05/21 10:28:38;;;;;;;8.48;3.30;;;18.40;99.70;;;;;;4967436;28;20072;-92
2022/05/21 10:31:10;;;;;;;8.35;3.38;;;18.40;99.40;;;;;;4971683;28;20540;-92
2022/05/21 10:34:07;;;;;;;10.55;2.80;;;18.40;99.20;;;;;;4959511;28;20054;-90
2022/05/21 10:37:01;;;;;;;10.55;3.28;;;18.50;98.90;;;;;;4954488;28;20081;-89
2022/05/21 10:39:33;;;;;;;9.82;2.90;;;18.50;97.90;;;;;;4956040;28;20045;-91
2022/05/21 10:42:36;;;;;;;11.00;2.67;;;18.50;97.80;;;;;;4967437;28;20511;-90
2022/05/21 10:45:17;;;;;;;9.57;3.03;;;18.50;97.60;;;;;;4956812;29;20035;-89
2022/05/21 10:48:16;;;;;;;9.50;3.33;;;18.60;98.20;;;;;;4957704;29;20114;-90
2022/05/21 10:51:16;;;;;;;15.93;3.55;;;18.60;98.50;;;;;;4940757;29;20043;-91
2022/05/21 10:54:00;;;;;;;9.27;2.90;;;18.70;98.20;;;;;;4957466;29;20027;-90
2022/05/21 10:57:01;;;;;;;7.00;2.38;;;18.70;98.10;;;;;;4940301;29;20023;-89
2022/05/21 10:59:46;;;;;;;9.05;3.00;;;18.80;97.60;;;;;;4956368;29;20023;-91
2022/05/21 11:02:31;;;;;;;10.25;2.90;;;18.80;96.90;;;;;;4956139;29;20035;-88
2022/05/21 11:05:59;;;;;;;10.60;2.90;;;18.80;97.00;;;;;;4941282;29;20052;-86
2022/05/21 11:08:42;;;;;;;10.07;2.92;;;18.80;96.70;;;;;;4955806;28;20082;-84
2022/05/21 11:11:07;;;;;;;9.05;3.40;;;18.80;96.80;;;;;;4939183;29;20034;-85
2022/05/21 11:13:57;;;;;;;11.25;3.63;;;18.80;97.00;;;;;;4939103;29;20028;-86
2022/05/21 11:16:53;;;;;;;11.68;3.13;;;18.90;96.80;;;;;;4955562;29;20038;-84
2022/05/21 11:19:30;;;;;;;11.13;2.95;;;18.90;96.60;;;;;;4950587;29;20383;-85
2022/05/21 11:22:07;;;;;;;8.55;2.90;;;18.90;96.40;;;;;;4940077;29;20384;-87
2022/05/21 11:25:05;;;;;;;7.40;2.70;;;18.90;96.80;;;;;;4954958;29;20030;-86
2022/05/21 11:27:46;;;;;;;9.80;2.92;;;18.90;96.30;;;;;;4948476;28;20045;-90
2022/05/21 11:30:31;;;;;;;;;;;;;;;;;;;;;
2022/05/21 11:39:02;;;;;;;11.40;3.20;;;19.10;97.00;;;;;;4985482;28;20110;-90
2022/05/21 11:41:53;;;;;;;7.80;2.75;;;19.10;97.00;;;;;;4950037;28;20046;-91
2022/05/21 11:47:41;;;;;;;9.70;3.17;;;19.20;96.80;;;;;;4980526;28;20073;-91
2022/05/21 11:50:36;;;;;;;9.77;2.88;;;19.30;96.90;;;;;;4981307;28;20118;-90
2022/05/21 11:53:09;;;;;;;10.30;2.60;;;19.30;96.80;;;;;;4962029;28;20038;-92
2022/05/21 11:55:58;;;;;;;7.65;2.40;;;19.40;96.80;;;;;;4963192;28;20042;-91
2022/05/21 11:59:10;;;;;;;9.95;2.65;;;19.50;96.70;;;;;;4964847;28;20023;-91
2022/05/21 12:01:49;;;;;;;;;;;;;;;;;;;;;
2022/05/21 12:04:40;;;;;;;9.60;2.35;;;19.50;96.00;;;;;;4986465;28;20094;-91
2022/05/21 12:07:27;;;;;;;8.10;2.58;;;19.50;95.70;;;;;;4970405;28;20027;-91
2022/05/21 12:10:14;;;;;;;8.57;3.10;;;19.60;96.00;;;;;;4969606;28;20047;-91
2022/05/21 12:13:21;;;;;;;;;;;;;;;;;;;;;
2022/05/21 12:16:00;;;;;;;13.63;3.20;;;19.70;96.50;;;;;;4965606;28;20340;-92
2022/05/21 12:18:44;;;;;;;9.90;2.60;;;19.70;96.90;;;;;;4990113;28;20034;-89
2022/05/21 12:21:44;;;;;;;;;;;;;;;;;;;;;
2022/05/21 12:27:56;;;;;;;10.57;2.60;;;19.80;95.20;;;;;;4993431;28;20026;-93
2022/05/21 12:30:37;;;;;;;29.63;4.20;;;19.80;94.90;;;;;;4980939;28;20064;-93
2022/05/21 12:33:37;;;;;;;;;;;;;;;;;;;;;
2022/05/21 12:36:52;;;;;;;12.02;2.42;;;19.80;94.40;;;;;;4996667;28;20037;-96
2022/05/21 12:39:29;;;;;;;8.30;2.63;;;19.80;94.60;;;;;;4970036;28;20034;-92
2022/05/21 12:44:57;;;;;;;7.10;2.58;;;19.90;94.20;;;;;;4996162;28;20030;-95
2022/05/21 12:47:48;;;;;;;9.13;2.00;;;19.90;93.70;;;;;;4966887;28;20097;-94
2022/05/21 12:50:25;;;;;;;7.75;2.38;;;20.00;93.30;;;;;;4978725;28;20019;-93
2022/05/21 12:53:07;;;;;;;;;;;;;;;;;;;;;
2022/05/21 12:55:34;;;;;;;11.77;2.58;;;20.00;93.70;;;;;;4999498;28;20094;-90
2022/05/21 12:58:08;;;;;;;9.73;2.17;;;20.00;92.80;;;;;;4997858;28;20050;-95
2022/05/21 13:00:39;;;;;;;11.57;2.88;;;20.00;92.60;;;;;;4977972;28;20078;-96
2022/05/21 13:03:52;;;;;;;7.60;2.08;;;19.90;92.10;;;;;;4978689;28;20018;-94
2022/05/21 13:06:28;;;;;;;9.63;2.40;;;19.90;92.20;;;;;;4978210;28;20038;-93
2022/05/21 13:09:10;;;;;;;;;;;;;;;;;;;;;
2022/05/21 13:12:36;;;;;;;;;;;;;;;;;;;;;
2022/05/21 13:15:38;;;;;;;8.82;2.65;;;20.00;93.20;;;;;;4976535;28;20094;-95
2022/05/21 13:19:06;;;;;;;10.20;2.38;;;20.00;93.60;;;;;;4959818;28;20034;-95
2022/05/21 13:21:56;;;;;;;;;;;;;;;;;;;;;
2022/05/21 13:24:24;;;;;;;;;;;20.10;92.70;;;;;;4960811;28;20030;-91
2022/05/21 13:27:25;;;;;;;8.10;2.22;;;20.20;92.90;;;;;;4957881;28;19906;-91
2022/05/21 13:33:01;;;;;;;8.18;2.33;;;20.30;91.60;;;;;;4962702;28;20066;-90
2022/05/21 13:35:37;;;;;;;8.13;2.25;;;20.20;91.80;;;;;;4957267;28;20030;-92
2022/05/21 13:38:06;;;;;;;8.25;2.22;;;20.20;91.40;;;;;;4950998;28;20023;-89
2022/05/21 13:40:53;;;;;;;9.07;2.28;;;20.20;91.10;;;;;;4961844;28;20063;-90
2022/05/21 13:43:42;;;;;;;7.30;1.92;;;20.20;91.60;;;;;;4953949;28;20032;-91
2022/05/21 13:46:12;;;;;;;9.00;1.90;;;20.20;92.00;;;;;;4954759;29;20035;-90
2022/05/21 13:48:47;;;;;;;10.15;2.22;;;20.30;92.50;;;;;;4955202;29;20036;-90
2022/05/21 13:51:33;;;;;;;6.88;2.17;;;20.30;92.40;;;;;;4938689;28;20055;-91
2022/05/21 13:54:19;;;;;;;9.80;2.03;;;20.40;92.00;;;;;;4938549;29;20035;-91
2022/05/21 13:56:48;;;;;;;8.35;2.03;;;20.40;91.80;;;;;;4938197;29;20027;-90
2022/05/21 13:59:31;;;;;;;5.97;2.00;;;20.40;91.20;;;;;;4941899;28;20129;-89
2022/05/21 14:02:39;;;;;;;7.85;2.53;;;20.40;90.30;;;;;;4951006;28;20483;-92
2022/05/21 14:05:25;;;;;;;9.77;1.90;;;20.40;89.50;;;;;;4961857;28;20479;-90
2022/05/21 14:08:12;;;;;;;9.38;2.00;;;20.40;88.00;;;;;;4950900;28;20027;-91
2022/05/21 14:11:00;;;;;;;7.10;2.38;;;20.40;89.30;;;;;;4957699;28;20055;-89
2022/05/21 14:13:26;;;;;;;8.75;2.40;;;20.40;90.00;;;;;;4964364;28;20030;-89
2022/05/21 14:15:53;;;;;;;9.55;2.63;;;20.40;90.30;;;;;;4948958;28;20039;-88
2022/05/21 14:19:00;;;;;;;7.05;1.90;;;20.40;90.60;;;;;;4948690;29;20034;-91
2022/05/21 14:21:26;;;;;;;8.43;2.00;;;20.50;90.60;;;;;;4903150;29;20044;-94
2022/05/21 14:24:08;;;;;;;9.60;2.55;;;20.50;90.70;;;;;;4958467;28;20031;-91